sensor_id;sensor_type;location;lat;lon;timestamp;pressure;altitude;pressure_sealevel;temperature
84287;BMP280;74445;55.252;61.092;2024-03-02T00:00:20;141151.81;;;-8.59
84287;BMP280;74445;55.252;61.092;2024-03-02T00:02:51;140215.03;;;-8.58
84287;BMP280;74445;55.252;61.092;2024-03-02T00:05:19;140527.69;;;-8.58
84287;BMP280;74445;55.252;61.092;2024-03-02T00:07:47;140526.50;;;-8.59
84287;BMP280;74445;55.252;61.092;2024-03-02T00:10:22;140219.75;;;-8.56
84287;BMP280;74445;55.252;61.092;2024-03-02T00:12:55;139590.94;;;-8.58
84287;BMP280;74445;55.252;61.092;2024-03-02T00:15:40;139908.31;;;-8.56
84287;BMP280;74445;55.252;61.092;2024-03-02T00:18:11;140220.97;;;-8.56
84287;BMP280;74445;55.252;61.092;2024-03-02T00:20:41;140528.88;;;-8.58
84287;BMP280;74445;55.252;61.092;2024-03-02T00:23:09;140528.88;;;-8.58
84287;BMP280;74445;55.252;61.092;2024-03-02T00:25:41;140528.88;;;-8.58
84287;BMP280;74445;55.252;61.092;2024-03-02T00:28:14;140527.69;;;-8.58
84287;BMP280;74445;55.252;61.092;2024-03-02T00:30:52;140528.88;;;-8.58
84287;BMP280;74445;55.252;61.092;2024-03-02T00:33:21;140525.31;;;-8.59
84287;BMP280;74445;55.252;61.092;2024-03-02T00:35:48;140524.16;;;-8.60
84287;BMP280;74445;55.252;61.092;2024-03-02T00:38:15;139898.88;;;-8.60
84287;BMP280;74445;55.252;61.092;2024-03-02T00:40:44;139900.03;;;-8.59
84287;BMP280;74445;55.252;61.092;2024-03-02T00:46:15;140525.31;;;-8.59
84287;BMP280;74445;55.252;61.092;2024-03-02T00:48:48;140526.50;;;-8.59
84287;BMP280;74445;55.252;61.092;2024-03-02T00:51:15;140521.78;;;-8.61
84287;BMP280;74445;55.252;61.092;2024-03-02T00:53:41;140519.41;;;-8.62
84287;BMP280;74445;55.252;61.092;2024-03-02T00:56:11;140823.72;;;-8.65
84287;BMP280;74445;55.252;61.092;2024-03-02T00:58:38;140823.72;;;-8.65
84287;BMP280;74445;55.252;61.092;2024-03-02T01:01:04;140821.34;;;-8.66
84287;BMP280;74445;55.252;61.092;2024-03-02T01:03:31;140820.16;;;-8.67
84287;BMP280;74445;55.252;61.092;2024-03-02T01:05:59;140507.56;;;-8.67
84287;BMP280;74445;55.252;61.092;2024-03-02T01:08:25;140196.13;;;-8.66
84287;BMP280;74445;55.252;61.092;2024-03-02T01:10:55;140509.94;;;-8.66
84287;BMP280;74445;55.252;61.092;2024-03-02T01:13:23;140507.56;;;-8.67
84287;BMP280;74445;55.252;61.092;2024-03-02T01:15:50;140810.66;;;-8.70
84287;BMP280;74445;55.252;61.092;2024-03-02T01:18:17;140809.47;;;-8.71
84287;BMP280;74445;55.252;61.092;2024-03-02T01:20:43;140810.66;;;-8.70
84287;BMP280;74445;55.252;61.092;2024-03-02T01:23:10;140498.09;;;-8.70
84287;BMP280;74445;55.252;61.092;2024-03-02T01:25:37;140805.94;;;-8.72
84287;BMP280;74445;55.252;61.092;2024-03-02T01:28:04;140804.72;;;-8.73
84287;BMP280;74445;55.252;61.092;2024-03-02T01:30:32;140798.81;;;-8.75
84287;BMP280;74445;55.252;61.092;2024-03-02T01:32:59;140794.06;;;-8.77
84287;BMP280;74445;55.252;61.092;2024-03-02T01:35:26;140792.84;;;-8.78
84287;BMP280;74445;55.252;61.092;2024-03-02T01:37:52;141099.47;;;-8.80
84287;BMP280;74445;55.252;61.092;2024-03-02T01:40:19;141098.25;;;-8.81
84287;BMP280;74445;55.252;61.092;2024-03-02T01:42:46;141094.72;;;-8.82
84287;BMP280;74445;55.252;61.092;2024-03-02T01:45:13;140782.19;;;-8.82
84287;BMP280;74445;55.252;61.092;2024-03-02T01:47:42;140159.50;;;-8.81
84287;BMP280;74445;55.252;61.092;2024-03-02T01:50:11;139845.78;;;-8.82
84287;BMP280;74445;55.252;61.092;2024-03-02T01:52:37;139837.53;;;-8.85
84287;BMP280;74445;55.252;61.092;2024-03-02T01:55:05;140146.47;;;-8.87
84287;BMP280;74445;55.252;61.092;2024-03-02T01:57:32;140453.09;;;-8.89
84287;BMP280;74445;55.252;61.092;2024-03-02T01:59:59;140760.81;;;-8.91
84287;BMP280;74445;55.252;61.092;2024-03-02T02:02:26;141065.00;;;-8.95
84287;BMP280;74445;55.252;61.092;2024-03-02T02:04:54;141373.88;;;-8.96
84287;BMP280;74445;55.252;61.092;2024-03-02T02:07:21;141373.88;;;-8.96
84287;BMP280;74445;55.252;61.092;2024-03-02T02:09:47;141373.88;;;-8.96
84287;BMP280;74445;55.252;61.092;2024-03-02T02:12:15;141373.88;;;-8.96
84287;BMP280;74445;55.252;61.092;2024-03-02T02:14:47;141378.63;;;-8.94
84287;BMP280;74445;55.252;61.092;2024-03-02T02:17:15;141375.09;;;-8.96
84287;BMP280;74445;55.252;61.092;2024-03-02T02:19:42;141065.00;;;-8.95
84287;BMP280;74445;55.252;61.092;2024-03-02T02:22:10;140451.88;;;-8.90
84287;BMP280;74445;55.252;61.092;2024-03-02T02:24:40;140453.09;;;-8.89
84287;BMP280;74445;55.252;61.092;2024-03-02T02:27:07;140451.88;;;-8.90
84287;BMP280;74445;55.252;61.092;2024-03-02T02:29:34;140450.72;;;-8.90
84287;BMP280;74445;55.252;61.092;2024-03-02T02:32:01;140758.44;;;-8.92
84287;BMP280;74445;55.252;61.092;2024-03-02T02:34:27;140754.91;;;-8.94
84287;BMP280;74445;55.252;61.092;2024-03-02T02:36:54;141066.16;;;-8.94
84287;BMP280;74445;55.252;61.092;2024-03-02T02:39:22;141382.22;;;-8.93
84287;BMP280;74445;55.252;61.092;2024-03-02T02:41:49;141065.00;;;-8.95
84287;BMP280;74445;55.252;61.092;2024-03-02T02:44:16;140753.69;;;-8.94
84287;BMP280;74445;55.252;61.092;2024-03-02T02:46:42;140752.53;;;-8.95
84287;BMP280;74445;55.252;61.092;2024-03-02T02:49:09;140437.72;;;-8.96
84287;BMP280;74445;55.252;61.092;2024-03-02T02:51:36;140447.13;;;-8.92
84287;BMP280;74445;55.252;61.092;2024-03-02T02:54:02;140139.38;;;-8.90
84287;BMP280;74445;55.252;61.092;2024-03-02T02:56:30;139837.53;;;-8.85
84287;BMP280;74445;55.252;61.092;2024-03-02T02:58:57;139529.75;;;-8.83
84287;BMP280;74445;55.252;61.092;2024-03-02T03:01:24;139848.13;;;-8.81
84287;BMP280;74445;55.252;61.092;2024-03-02T03:03:51;139855.22;;;-8.78
84287;BMP280;74445;55.252;61.092;2024-03-02T03:06:18;139555.63;;;-8.72
84287;BMP280;74445;55.252;61.092;2024-03-02T03:08:45;139565.03;;;-8.68
84287;BMP280;74445;55.252;61.092;2024-03-02T03:11:11;139576.81;;;-8.64
84287;BMP280;74445;55.252;61.092;2024-03-02T03:13:39;139895.31;;;-8.61
84287;BMP280;74445;55.252;61.092;2024-03-02T03:16:06;139286.50;;;-8.54
84287;BMP280;74445;55.252;61.092;2024-03-02T03:18:33;138678.72;;;-8.47
84287;BMP280;74445;55.252;61.092;2024-03-02T03:20:59;138376.50;;;-8.42
84287;BMP280;74445;55.252;61.092;2024-03-02T03:23:26;138077.78;;;-8.36
84287;BMP280;74445;55.252;61.092;2024-03-02T03:25:52;136533.66;;;-8.28
84287;BMP280;74445;55.252;61.092;2024-03-02T03:28:19;135296.22;;;-8.22
84287;BMP280;74445;55.252;61.092;2024-03-02T03:30:47;134686.47;;;-8.15
84287;BMP280;74445;55.252;61.092;2024-03-02T03:33:13;134702.38;;;-8.08
84287;BMP280;74445;55.252;61.092;2024-03-02T03:35:40;133780.69;;;-8.00
84287;BMP280;74445;55.252;61.092;2024-03-02T03:38:07;133172.84;;;-7.92
84287;BMP280;74445;55.252;61.092;2024-03-02T03:40:33;131630.34;;;-7.82
84287;BMP280;74445;55.252;61.092;2024-03-02T03:43:00;129462.44;;;-7.72
84287;BMP280;74445;55.252;61.092;2024-03-02T03:45:26;127295.94;;;-7.60
84287;BMP280;74445;55.252;61.092;2024-03-02T03:47:54;125752.88;;;-7.50
84287;BMP280;74445;55.252;61.092;2024-03-02T03:50:21;121610.22;;;-7.38
84287;BMP280;74445;55.252;61.092;2024-03-02T03:52:48;118707.06;;;-7.29
84287;BMP280;74445;55.252;61.092;2024-03-02T03:55:15;115898.16;;;-7.19
84287;BMP280;74445;55.252;61.092;2024-03-02T03:57:41;113198.56;;;-7.09
84287;BMP280;74445;55.252;61.092;2024-03-02T04:00:09;110848.81;;;-6.93
84287;BMP280;74445;55.252;61.092;2024-03-02T04:02:36;108371.25;;;-6.79
84287;BMP280;74445;55.252;61.092;2024-03-02T04:05:05;104259.31;;;-6.57
84287;BMP280;74445;55.252;61.092;2024-03-02T04:07:37;100229.16;;;-6.32
84287;BMP280;74445;55.252;61.092;2024-03-02T04:10:08;96019.53;;;-5.99
84287;BMP280;74445;55.252;61.092;2024-03-02T04:12:35;91758.69;;;-5.62
84287;BMP280;74445;55.252;61.092;2024-03-02T04:15:03;83928.22;;;-4.52
84287;BMP280;74445;55.252;61.092;2024-03-02T04:17:32;67096.25;;;-3.19
84287;BMP280;74445;55.252;61.092;2024-03-02T04:19:59;67743.53;;;-2.44
84287;BMP280;74445;55.252;61.092;2024-03-02T04:22:28;78534.44;;;-1.71
84287;BMP280;74445;55.252;61.092;2024-03-02T04:24:55;109325.75;;;-1.05
84287;BMP280;74445;55.252;61.092;2024-03-02T04:27:22;134880.25;;;0.15
84287;BMP280;74445;55.252;61.092;2024-03-02T04:29:49;142265.69;;;1.23
84287;BMP280;74445;55.252;61.092;2024-03-02T04:32:16;145732.53;;;2.53
84287;BMP280;74445;55.252;61.092;2024-03-02T04:34:42;145908.94;;;3.25
84287;BMP280;74445;55.252;61.092;2024-03-02T04:37:10;146061.13;;;3.87
84287;BMP280;74445;55.252;61.092;2024-03-02T04:39:40;146388.88;;;5.21
84287;BMP280;74445;55.252;61.092;2024-03-02T04:42:06;146724.38;;;6.58
84287;BMP280;74445;55.252;61.092;2024-03-02T04:44:33;146958.78;;;7.54
84287;BMP280;74445;55.252;61.092;2024-03-02T04:46:59;146952.66;;;7.52
84287;BMP280;74445;55.252;61.092;2024-03-02T04:49:26;146845.19;;;7.08
84287;BMP280;74445;55.252;61.092;2024-03-02T04:51:52;146669.47;;;6.36
84287;BMP280;74445;55.252;61.092;2024-03-02T04:54:19;146651.16;;;6.28
84287;BMP280;74445;55.252;61.092;2024-03-02T04:56:48;146724.38;;;6.58
84287;BMP280;74445;55.252;61.092;2024-03-02T04:59:18;146951.44;;;7.51
84287;BMP280;74445;55.252;61.092;2024-03-02T05:01:46;147189.72;;;8.48
84287;BMP280;74445;55.252;61.092;2024-03-02T05:04:14;147365.72;;;9.20
84287;BMP280;74445;55.252;61.092;2024-03-02T05:06:41;147518.66;;;9.82
84287;BMP280;74445;55.252;61.092;2024-03-02T05:09:08;147597.03;;;10.14
84287;BMP280;74445;55.252;61.092;2024-03-02T05:11:35;147667.97;;;10.43
84287;BMP280;74445;55.252;61.092;2024-03-02T05:14:23;147741.41;;;10.73
84287;BMP280;74445;55.252;61.092;2024-03-02T05:16:50;147843.06;;;11.14
84287;BMP280;74445;55.252;61.092;2024-03-02T05:19:16;148064.81;;;12.04
84287;BMP280;74445;55.252;61.092;2024-03-02T05:21:43;148256.00;;;12.82
84287;BMP280;74445;55.252;61.092;2024-03-02T05:24:10;148480.53;;;13.73
84287;BMP280;74445;55.252;61.092;2024-03-02T05:26:36;148651.16;;;14.42
84287;BMP280;74445;55.252;61.092;2024-03-02T05:29:03;148818.13;;;15.10
84287;BMP280;74445;55.252;61.092;2024-03-02T05:31:31;149018.41;;;15.91
84287;BMP280;74445;55.252;61.092;2024-03-02T05:33:57;149039.25;;;16.00
84287;BMP280;74445;55.252;61.092;2024-03-02T05:36:24;148745.66;;;14.81
84287;BMP280;74445;55.252;61.092;2024-03-02T05:38:50;148446.19;;;13.59
84287;BMP280;74445;55.252;61.092;2024-03-02T05:41:17;148443.72;;;13.58
84287;BMP280;74445;55.252;61.092;2024-03-02T05:43:44;148532.06;;;13.94
84287;BMP280;74445;55.252;61.092;2024-03-02T05:46:10;148714.97;;;14.68
84287;BMP280;74445;55.252;61.092;2024-03-02T05:48:39;148791.13;;;14.99
84287;BMP280;74445;55.252;61.092;2024-03-02T05:51:06;148680.59;;;14.54
84287;BMP280;74445;55.252;61.092;2024-03-02T05:53:33;148394.66;;;13.38
84287;BMP280;74445;55.252;61.092;2024-03-02T05:56:00;148417.94;;;13.48
84287;BMP280;74445;55.252;61.092;2024-03-02T05:58:26;148549.25;;;14.01
84287;BMP280;74445;55.252;61.092;2024-03-02T06:01:12;148668.34;;;14.49
84287;BMP280;74445;55.252;61.092;2024-03-02T06:03:40;148739.53;;;14.78
84287;BMP280;74445;55.252;61.092;2024-03-02T06:06:07;148794.78;;;15.01
84287;BMP280;74445;55.252;61.092;2024-03-02T06:08:33;148963.06;;;15.69
84287;BMP280;74445;55.252;61.092;2024-03-02T06:11:01;149100.72;;;16.25
84287;BMP280;74445;55.252;61.092;2024-03-02T06:13:27;149162.22;;;16.50
84287;BMP280;74445;55.252;61.092;2024-03-02T06:15:54;149237.19;;;16.80
84287;BMP280;74445;55.252;61.092;2024-03-02T06:18:21;149438.94;;;17.62
84287;BMP280;74445;55.252;61.092;2024-03-02T06:20:49;149602.59;;;18.28
84287;BMP280;74445;55.252;61.092;2024-03-02T06:23:15;149706.00;;;18.70
84287;BMP280;74445;55.252;61.092;2024-03-02T06:25:42;149837.78;;;19.23
84287;BMP280;74445;55.252;61.092;2024-03-02T06:28:08;149835.31;;;19.22
84287;BMP280;74445;55.252;61.092;2024-03-02T06:30:35;149778.66;;;18.99
84287;BMP280;74445;55.252;61.092;2024-03-02T06:33:01;149493.06;;;17.84
84287;BMP280;74445;55.252;61.092;2024-03-02T06:35:30;149318.34;;;17.13
84287;BMP280;74445;55.252;61.092;2024-03-02T06:37:58;149151.19;;;16.45
84287;BMP280;74445;55.252;61.092;2024-03-02T06:40:24;149258.09;;;16.88
84287;BMP280;74445;55.252;61.092;2024-03-02T06:42:51;149415.59;;;17.52
84287;BMP280;74445;55.252;61.092;2024-03-02T06:45:18;149454.94;;;17.68
84287;BMP280;74445;55.252;61.092;2024-03-02T06:47:44;149536.09;;;18.01
84287;BMP280;74445;55.252;61.092;2024-03-02T06:50:10;149536.09;;;18.01
84287;BMP280;74445;55.252;61.092;2024-03-02T06:52:37;149552.13;;;18.07
84287;BMP280;74445;55.252;61.092;2024-03-02T06:55:07;149733.09;;;18.81
84287;BMP280;74445;55.252;61.092;2024-03-02T06:57:33;149687.56;;;18.62
84287;BMP280;74445;55.252;61.092;2024-03-02T07:00:00;149697.41;;;18.66
84287;BMP280;74445;55.252;61.092;2024-03-02T07:02:26;149706.00;;;18.70
84287;BMP280;74445;55.252;61.092;2024-03-02T07:04:53;149784.81;;;19.02
84287;BMP280;74445;55.252;61.092;2024-03-02T07:07:20;149848.88;;;19.27
84287;BMP280;74445;55.252;61.092;2024-03-02T07:09:47;149852.56;;;19.29
84287;BMP280;74445;55.252;61.092;2024-03-02T07:12:15;149943.69;;;19.66
84287;BMP280;74445;55.252;61.092;2024-03-02T07:14:42;149880.91;;;19.40
84287;BMP280;74445;55.252;61.092;2024-03-02T07:17:27;149811.91;;;19.13
84287;BMP280;74445;55.252;61.092;2024-03-02T07:19:54;149773.75;;;18.97
84287;BMP280;74445;55.252;61.092;2024-03-02T07:22:20;149685.09;;;18.61
84287;BMP280;74445;55.252;61.092;2024-03-02T07:24:47;149681.38;;;18.60
84287;BMP280;74445;55.252;61.092;2024-03-02T07:27:16;149821.78;;;19.17
84287;BMP280;74445;55.252;61.092;2024-03-02T07:29:42;149761.44;;;18.92
84287;BMP280;74445;55.252;61.092;2024-03-02T07:32:09;149712.19;;;18.72
84287;BMP280;74445;55.252;61.092;2024-03-02T07:34:36;149633.41;;;18.40
84287;BMP280;74445;55.252;61.092;2024-03-02T07:37:06;149467.25;;;17.73
84287;BMP280;74445;55.252;61.092;2024-03-02T07:39:33;149389.72;;;17.42
84287;BMP280;74445;55.252;61.092;2024-03-02T07:42:00;149280.25;;;16.97
84287;BMP280;74445;55.252;61.092;2024-03-02T07:44:28;149250.72;;;16.85
84287;BMP280;74445;55.252;61.092;2024-03-02T07:46:55;149068.75;;;16.12
84287;BMP280;74445;55.252;61.092;2024-03-02T07:49:21;149013.47;;;15.89
84287;BMP280;74445;55.252;61.092;2024-03-02T07:51:48;148765.31;;;14.89
84287;BMP280;74445;55.252;61.092;2024-03-02T07:54:15;148521.00;;;13.90
84287;BMP280;74445;55.252;61.092;2024-03-02T07:56:41;148317.38;;;13.07
84287;BMP280;74445;55.252;61.092;2024-03-02T07:59:08;148160.44;;;12.43
84287;BMP280;74445;55.252;61.092;2024-03-02T08:01:37;147849.16;;;11.17
84287;BMP280;74445;55.252;61.092;2024-03-02T08:04:03;147623.91;;;10.25
84287;BMP280;74445;55.252;61.092;2024-03-02T08:06:30;147469.72;;;9.62
84287;BMP280;74445;55.252;61.092;2024-03-02T08:08:58;147370.63;;;9.22
84287;BMP280;74445;55.252;61.092;2024-03-02T08:11:25;147244.72;;;8.71
84287;BMP280;74445;55.252;61.092;2024-03-02T08:13:53;147178.72;;;8.44
84287;BMP280;74445;55.252;61.092;2024-03-02T08:16:21;147072.38;;;8.00
84287;BMP280;74445;55.252;61.092;2024-03-02T08:18:51;147038.16;;;7.86
84287;BMP280;74445;55.252;61.092;2024-03-02T08:21:18;146953.91;;;7.52
84287;BMP280;74445;55.252;61.092;2024-03-02T08:23:45;146949.00;;;7.50
84287;BMP280;74445;55.252;61.092;2024-03-02T08:26:12;146936.81;;;7.45
84287;BMP280;74445;55.252;61.092;2024-03-02T08:28:39;146918.47;;;7.38
84287;BMP280;74445;55.252;61.092;2024-03-02T08:31:09;146856.19;;;7.12
84287;BMP280;74445;55.252;61.092;2024-03-02T08:33:36;146819.56;;;6.97
84287;BMP280;74445;55.252;61.092;2024-03-02T08:36:05;146784.16;;;6.83
84287;BMP280;74445;55.252;61.092;2024-03-02T08:38:32;146658.47;;;6.31
84287;BMP280;74445;55.252;61.092;2024-03-02T08:40:59;146643.81;;;6.26
84287;BMP280;74445;55.252;61.092;2024-03-02T08:43:27;146615.78;;;6.14
84287;BMP280;74445;55.252;61.092;2024-03-02T08:45:53;146473.00;;;5.56
84287;BMP280;74445;55.252;61.092;2024-03-02T08:48:20;146397.41;;;5.25
84287;BMP280;74445;55.252;61.092;2024-03-02T08:50:47;146349.88;;;5.05
84287;BMP280;74445;55.252;61.092;2024-03-02T08:53:15;146223.13;;;4.54
84287;BMP280;74445;55.252;61.092;2024-03-02T08:55:45;146162.19;;;4.29
84287;BMP280;74445;55.252;61.092;2024-03-02T08:58:12;146106.16;;;4.06
84287;BMP280;74445;55.252;61.092;2024-03-02T09:00:39;146051.38;;;3.83
84287;BMP280;74445;55.252;61.092;2024-03-02T09:03:06;146044.06;;;3.80
84287;BMP280;74445;55.252;61.092;2024-03-02T09:05:33;145949.09;;;3.42
84287;BMP280;74445;55.252;61.092;2024-03-02T09:08:00;145840.78;;;2.97
84287;BMP280;74445;55.252;61.092;2024-03-02T09:10:28;145792.13;;;2.77
84287;BMP280;74445;55.252;61.092;2024-03-02T09:12:55;145832.25;;;2.94
84287;BMP280;74445;55.252;61.092;2024-03-02T09:15:22;145823.75;;;2.90
84287;BMP280;74445;55.252;61.092;2024-03-02T09:17:48;145816.44;;;2.87
84287;BMP280;74445;55.252;61.092;2024-03-02T09:20:15;145817.66;;;2.88
84287;BMP280;74445;55.252;61.092;2024-03-02T09:22:42;145822.50;;;2.90
84287;BMP280;74445;55.252;61.092;2024-03-02T09:25:09;145751.94;;;2.61
84287;BMP280;74445;55.252;61.092;2024-03-02T09:27:38;145711.81;;;2.45
84287;BMP280;74445;55.252;61.092;2024-03-02T09:30:08;145669.25;;;2.27
84287;BMP280;74445;55.252;61.092;2024-03-02T09:32:37;145598.72;;;1.98
84287;BMP280;74445;55.252;61.092;2024-03-02T09:35:04;145533.06;;;1.71
84287;BMP280;74445;55.252;61.092;2024-03-02T09:37:31;145533.06;;;1.71
84287;BMP280;74445;55.252;61.092;2024-03-02T09:39:57;145437.00;;;1.32
84287;BMP280;74445;55.252;61.092;2024-03-02T09:42:25;145428.53;;;1.28
84287;BMP280;74445;55.252;61.092;2024-03-02T09:44:53;145435.81;;;1.31
84287;BMP280;74445;55.252;61.092;2024-03-02T09:47:20;145367.78;;;1.04
84287;BMP280;74445;55.252;61.092;2024-03-02T09:49:47;145364.16;;;1.02
84287;BMP280;74445;55.252;61.092;2024-03-02T09:52:14;145354.44;;;0.98
84287;BMP280;74445;55.252;61.092;2024-03-02T09:54:41;145345.91;;;0.95
84287;BMP280;74445;55.252;61.092;2024-03-02T09:57:07;145273.00;;;0.65
84287;BMP280;74445;55.252;61.092;2024-03-02T09:59:34;145230.53;;;0.47
84287;BMP280;74445;55.252;61.092;2024-03-02T10:02:03;145236.56;;;0.50
84287;BMP280;74445;55.252;61.092;2024-03-02T10:04:30;145180.72;;;0.27
84287;BMP280;74445;55.252;61.092;2024-03-02T10:07:12;145163.72;;;0.20
84287;BMP280;74445;55.252;61.092;2024-03-02T10:09:39;145132.13;;;0.07
84287;BMP280;74445;55.252;61.092;2024-03-02T10:12:07;145071.50;;;-0.18
84287;BMP280;74445;55.252;61.092;2024-03-02T10:14:34;145025.38;;;-0.37
84287;BMP280;74445;55.252;61.092;2024-03-02T10:17:07;145053.25;;;-0.25
84287;BMP280;74445;55.252;61.092;2024-03-02T10:19:35;145003.53;;;-0.46
84287;BMP280;74445;55.252;61.092;2024-03-02T10:22:03;144959.84;;;-0.64
84287;BMP280;74445;55.252;61.092;2024-03-02T10:24:36;144930.72;;;-0.76
84287;BMP280;74445;55.252;61.092;2024-03-02T10:27:07;144911.31;;;-0.84
84287;BMP280;74445;55.252;61.092;2024-03-02T10:29:37;144885.81;;;-0.94
84287;BMP280;74445;55.252;61.092;2024-03-02T10:32:08;144857.94;;;-1.06
84287;BMP280;74445;55.252;61.092;2024-03-02T10:34:36;144844.56;;;-1.11
84287;BMP280;74445;55.252;61.092;2024-03-02T10:37:03;144859.13;;;-1.05
84287;BMP280;74445;55.252;61.092;2024-03-02T10:39:30;144840.94;;;-1.13
84287;BMP280;74445;55.252;61.092;2024-03-02T10:41:57;144825.16;;;-1.19
84287;BMP280;74445;55.252;61.092;2024-03-02T10:44:25;144805.75;;;-1.27
84287;BMP280;74445;55.252;61.092;2024-03-02T10:46:54;144775.47;;;-1.39
84287;BMP280;74445;55.252;61.092;2024-03-02T10:49:23;144781.56;;;-1.37
84287;BMP280;74445;55.252;61.092;2024-03-02T10:51:51;144774.28;;;-1.40
84287;BMP280;74445;55.252;61.092;2024-03-02T10:54:18;144758.50;;;-1.46
84287;BMP280;74445;55.252;61.092;2024-03-02T10:56:53;144757.28;;;-1.47
84287;BMP280;74445;55.252;61.092;2024-03-02T10:59:26;144722.13;;;-1.61
84287;BMP280;74445;55.252;61.092;2024-03-02T11:01:58;144707.56;;;-1.67
84287;BMP280;74445;55.252;61.092;2024-03-02T11:04:27;144671.19;;;-1.82
84287;BMP280;74445;55.252;61.092;2024-03-02T11:07:00;144654.22;;;-1.89
84287;BMP280;74445;55.252;61.092;2024-03-02T11:09:28;144637.25;;;-1.96
84287;BMP280;74445;55.252;61.092;2024-03-02T11:12:02;144637.25;;;-1.96
84287;BMP280;74445;55.252;61.092;2024-03-02T11:14:30;144630.00;;;-1.99
84287;BMP280;74445;55.252;61.092;2024-03-02T11:16:59;144615.44;;;-2.05
84287;BMP280;74445;55.252;61.092;2024-03-02T11:19:28;144605.75;;;-2.09
84287;BMP280;74445;55.252;61.092;2024-03-02T11:21:56;144573.06;;;-2.23
84287;BMP280;74445;55.252;61.092;2024-03-02T11:24:30;144539.13;;;-2.37
84287;BMP280;74445;55.252;61.092;2024-03-02T11:26:59;144525.78;;;-2.42
84287;BMP280;74445;55.252;61.092;2024-03-02T11:29:45;144546.41;;;-2.34
84287;BMP280;74445;55.252;61.092;2024-03-02T11:32:17;144520.94;;;-2.44
84287;BMP280;74445;55.252;61.092;2024-03-02T11:34:46;144508.81;;;-2.49
84287;BMP280;74445;55.252;61.092;2024-03-02T11:37:14;144512.47;;;-2.48
84287;BMP280;74445;55.252;61.092;2024-03-02T11:39:43;144496.69;;;-2.54
84287;BMP280;74445;55.252;61.092;2024-03-02T11:42:11;144462.81;;;-2.68
84287;BMP280;74445;55.252;61.092;2024-03-02T11:44:38;144432.53;;;-2.80
84287;BMP280;74445;55.252;61.092;2024-03-02T11:47:06;144414.38;;;-2.88
84287;BMP280;74445;55.252;61.092;2024-03-02T11:49:37;144405.88;;;-2.91
84287;BMP280;74445;55.252;61.092;2024-03-02T11:52:10;144390.16;;;-2.98
84287;BMP280;74445;55.252;61.092;2024-03-02T11:54:37;144371.97;;;-3.05
84287;BMP280;74445;55.252;61.092;2024-03-02T11:57:13;144374.41;;;-3.04
84287;BMP280;74445;55.252;61.092;2024-03-02T11:59:41;144344.16;;;-3.17
84287;BMP280;74445;55.252;61.092;2024-03-02T12:02:14;144361.09;;;-3.10
84287;BMP280;74445;55.252;61.092;2024-03-02T12:04:43;144329.63;;;-3.23
84287;BMP280;74445;55.252;61.092;2024-03-02T12:07:18;144319.94;;;-3.27
84287;BMP280;74445;55.252;61.092;2024-03-02T12:09:46;144281.19;;;-3.43
84287;BMP280;74445;55.252;61.092;2024-03-02T12:12:13;144289.66;;;-3.39
84287;BMP280;74445;55.252;61.092;2024-03-02T12:14:50;144290.88;;;-3.39
84287;BMP280;74445;55.252;61.092;2024-03-02T12:17:16;144254.56;;;-3.54
84287;BMP280;74445;55.252;61.092;2024-03-02T12:19:43;144227.94;;;-3.65
84287;BMP280;74445;55.252;61.092;2024-03-02T12:22:12;144211.00;;;-3.72
84287;BMP280;74445;55.252;61.092;2024-03-02T12:24:38;144186.78;;;-3.81
84287;BMP280;74445;55.252;61.092;2024-03-02T12:27:05;144167.44;;;-3.89
84287;BMP280;74445;55.252;61.092;2024-03-02T12:29:33;144150.50;;;-3.96
84287;BMP280;74445;55.252;61.092;2024-03-02T12:32:02;144131.13;;;-4.04
84287;BMP280;74445;55.252;61.092;2024-03-02T12:34:28;144102.09;;;-4.16
84287;BMP280;74445;55.252;61.092;2024-03-02T12:36:55;144087.59;;;-4.22
84287;BMP280;74445;55.252;61.092;2024-03-02T12:39:23;144065.81;;;-4.31
84287;BMP280;74445;55.252;61.092;2024-03-02T12:41:49;144042.84;;;-4.41
84287;BMP280;74445;55.252;61.092;2024-03-02T12:44:20;144044.03;;;-4.40
84287;BMP280;74445;55.252;61.092;2024-03-02T12:46:47;144017.44;;;-4.51
84287;BMP280;74445;55.252;61.092;2024-03-02T12:49:14;143981.16;;;-4.66
84287;BMP280;74445;55.252;61.092;2024-03-02T12:51:47;143952.13;;;-4.78
84287;BMP280;74445;55.252;61.092;2024-03-02T12:54:18;143940.03;;;-4.83
84287;BMP280;74445;55.252;61.092;2024-03-02T12:56:46;143919.53;;;-4.92
84287;BMP280;74445;55.252;61.092;2024-03-02T12:59:18;143897.75;;;-5.01
84287;BMP280;74445;55.252;61.092;2024-03-02T13:01:50;143868.75;;;-5.12
84287;BMP280;74445;55.252;61.092;2024-03-02T13:04:22;143833.72;;;-5.27
84287;BMP280;74445;55.252;61.092;2024-03-02T13:06:49;143790.22;;;-5.45
84287;BMP280;74445;55.252;61.092;2024-03-02T13:09:16;143749.13;;;-5.62
84287;BMP280;74445;55.252;61.092;2024-03-02T13:11:43;143711.66;;;-5.77
84287;BMP280;74445;55.252;61.092;2024-03-02T13:14:12;141839.00;;;-5.89
84287;BMP280;74445;55.252;61.092;2024-03-02T13:16:39;137983.34;;;-6.05
84287;BMP280;74445;55.252;61.092;2024-03-02T13:19:07;138915.31;;;-6.16
84287;BMP280;74445;55.252;61.092;2024-03-02T13:21:34;140773.69;;;-6.26
84287;BMP280;74445;55.252;61.092;2024-03-02T13:24:01;139838.53;;;-6.40
84287;BMP280;74445;55.252;61.092;2024-03-02T13:26:27;137586.44;;;-6.53
84287;BMP280;74445;55.252;61.092;2024-03-02T13:28:54;132438.47;;;-6.67
84287;BMP280;74445;55.252;61.092;2024-03-02T13:31:22;128291.41;;;-6.82
84287;BMP280;74445;55.252;61.092;2024-03-02T13:33:49;116832.91;;;-7.00
84287;BMP280;74445;55.252;61.092;2024-03-02T13:36:15;109331.75;;;-7.15
84287;BMP280;74445;55.252;61.092;2024-03-02T13:38:43;106908.41;;;-7.28
84287;BMP280;74445;55.252;61.092;2024-03-02T13:41:10;104776.06;;;-7.42
84287;BMP280;74445;55.252;61.092;2024-03-02T13:43:37;101941.78;;;-7.53
84287;BMP280;74445;55.252;61.092;2024-03-02T13:46:05;103734.56;;;-7.62
84287;BMP280;74445;55.252;61.092;2024-03-02T13:48:34;103879.56;;;-7.74
84287;BMP280;74445;55.252;61.092;2024-03-02T13:51:00;100550.97;;;-7.84
84287;BMP280;74445;55.252;61.092;2024-03-02T13:53:27;100751.00;;;-7.97